sensor_id;sensor_type;location;lat;lon;timestamp;temperature;humidity
11848;DHT22;5983;49.966;8.052;2022-08-21T12:06:06;30.00;56.20
11848;DHT22;5983;49.966;8.052;2022-08-21T12:08:36;30.00;55.70
11848;DHT22;5983;49.966;8.052;2022-08-21T12:11:06;30.30;55.20
11848;DHT22;5983;49.966;8.052;2022-08-21T12:13:37;30.40;54.20
11848;DHT22;5983;49.966;8.052;2022-08-21T12:16:07;30.40;53.80
11848;DHT22;5983;49.966;8.052;2022-08-21T12:18:38;30.20;54.00
11848;DHT22;5983;49.966;8.052;2022-08-21T12:21:21;30.20;55.20
11848;DHT22;5983;49.966;8.052;2022-08-21T12:24:02;30.30;54.40
11848;DHT22;5983;49.966;8.052;2022-08-21T12:26:52;30.40;53.40
11848;DHT22;5983;49.966;8.052;2022-08-21T12:29:25;30.50;52.70
11848;DHT22;5983;49.966;8.052;2022-08-21T12:31:57;30.50;52.70
11848;DHT22;5983;49.966;8.052;2022-08-21T12:34:33;30.50;54.70
11848;DHT22;5983;49.966;8.052;2022-08-21T12:37:07;30.70;54.60
11848;DHT22;5983;49.966;8.052;2022-08-21T12:39:46;30.80;53.30
11848;DHT22;5983;49.966;8.052;2022-08-21T12:42:18;30.70;52.60
11848;DHT22;5983;49.966;8.052;2022-08-21T12:44:52;30.60;52.70
11848;DHT22;5983;49.966;8.052;2022-08-21T12:47:27;30.60;53.10
11848;DHT22;5983;49.966;8.052;2022-08-21T12:50:03;30.80;53.00
11848;DHT22;5983;49.966;8.052;2022-08-21T12:52:36;31.10;52.60
11848;DHT22;5983;49.966;8.052;2022-08-21T12:55:14;31.40;52.10
11848;DHT22;5983;49.966;8.052;2022-08-21T12:57:44;31.70;51.60
11848;DHT22;5983;49.966;8.052;2022-08-21T13:00:13;31.80;51.70
11848;DHT22;5983;49.966;8.052;2022-08-21T13:02:48;31.70;50.80
11848;DHT22;5983;49.966;8.052;2022-08-21T13:05:23;31.50;50.90
11848;DHT22;5983;49.966;8.052;2022-08-21T13:07:56;31.30;52.10
11848;DHT22;5983;49.966;8.052;2022-08-21T13:10:26;31.20;51.30
11848;DHT22;5983;49.966;8.052;2022-08-21T13:12:57;31.20;50.60
11848;DHT22;5983;49.966;8.052;2022-08-21T13:15:28;31.40;50.70
11848;DHT22;5983;49.966;8.052;2022-08-21T13:17:58;31.40;49.10
11848;DHT22;5983;49.966;8.052;2022-08-21T13:20:30;31.40;48.10
11848;DHT22;5983;49.966;8.052;2022-08-21T13:23:00;31.30;47.80
11848;DHT22;5983;49.966;8.052;2022-08-21T13:25:30;31.20;48.40
11848;DHT22;5983;49.966;8.052;2022-08-21T13:28:05;31.30;49.80
11848;DHT22;5983;49.966;8.052;2022-08-21T13:30:39;31.40;51.10
11848;DHT22;5983;49.966;8.052;2022-08-21T13:33:09;31.40;50.30
11848;DHT22;5983;49.966;8.052;2022-08-21T13:35:47;31.40;48.50
11848;DHT22;5983;49.966;8.052;2022-08-21T13:38:19;31.40;48.40
11848;DHT22;5983;49.966;8.052;2022-08-21T13:40:55;31.40;48.80
11848;DHT22;5983;49.966;8.052;2022-08-21T13:43:28;31.40;49.10
11848;DHT22;5983;49.966;8.052;2022-08-21T13:45:58;31.30;49.30
11848;DHT22;5983;49.966;8.052;2022-08-21T13:48:33;31.40;49.80
11848;DHT22;5983;49.966;8.052;2022-08-21T13:51:02;31.40;50.30
11848;DHT22;5983;49.966;8.052;2022-08-21T13:53:34;31.30;50.30
11848;DHT22;5983;49.966;8.052;2022-08-21T13:56:04;31.20;49.40
11848;DHT22;5983;49.966;8.052;2022-08-21T13:58:44;31.00;49.60
11848;DHT22;5983;49.966;8.052;2022-08-21T14:01:19;30.90;50.60
11848;DHT22;5983;49.966;8.052;2022-08-21T14:03:50;30.90;50.50
11848;DHT22;5983;49.966;8.052;2022-08-21T14:06:21;30.90;49.50
11848;DHT22;5983;49.966;8.052;2022-08-21T14:08:55;30.70;48.50
11848;DHT22;5983;49.966;8.052;2022-08-21T14:11:26;30.70;48.80
11848;DHT22;5983;49.966;8.052;2022-08-21T14:14:01;30.60;49.40
11848;DHT22;5983;49.966;8.052;2022-08-21T14:16:42;30.60;49.60
11848;DHT22;5983;49.966;8.052;2022-08-21T14:19:18;30.50;49.30
11848;DHT22;5983;49.966;8.052;2022-08-21T14:21:47;30.50;48.90
11848;DHT22;5983;49.966;8.052;2022-08-21T14:24:26;30.50;49.20
11848;DHT22;5983;49.966;8.052;2022-08-21T14:26:57;30.60;48.80
11848;DHT22;5983;49.966;8.052;2022-08-21T14:29:35;30.50;48.80
11848;DHT22;5983;49.966;8.052;2022-08-21T14:32:10;30.40;48.50
11848;DHT22;5983;49.966;8.052;2022-08-21T14:34:39;30.30;48.80
11848;DHT22;5983;49.966;8.052;2022-08-21T14:37:07;30.30;47.80
11848;DHT22;5983;49.966;8.052;2022-08-21T14:39:36;30.20;48.30
11848;DHT22;5983;49.966;8.052;2022-08-21T14:42:04;30.20;50.10
11848;DHT22;5983;49.966;8.052;2022-08-21T14:44:31;30.10;48.20
11848;DHT22;5983;49.966;8.052;2022-08-21T14:46:58;29.90;47.50
11848;DHT22;5983;49.966;8.052;2022-08-21T14:49:28;29.80;47.70
11848;DHT22;5983;49.966;8.052;2022-08-21T14:51:56;29.90;48.80
11848;DHT22;5983;49.966;8.052;2022-08-21T14:54:23;29.80;48.80
11848;DHT22;5983;49.966;8.052;2022-08-21T14:56:52;29.80;48.90
11848;DHT22;5983;49.966;8.052;2022-08-21T14:59:20;29.70;49.00
11848;DHT22;5983;49.966;8.052;2022-08-21T15:02:09;29.70;49.10
11848;DHT22;5983;49.966;8.052;2022-08-21T15:04:50;29.60;49.60
11848;DHT22;5983;49.966;8.052;2022-08-21T15:07:34;29.70;50.30
11848;DHT22;5983;49.966;8.052;2022-08-21T15:10:02;29.60;50.70
11848;DHT22;5983;49.966;8.052;2022-08-21T15:12:39;29.40;50.10
11848;DHT22;5983;49.966;8.052;2022-08-21T15:15:32;29.30;48.70
11848;DHT22;5983;49.966;8.052;2022-08-21T15:18:06;29.30;49.40
11848;DHT22;5983;49.966;8.052;2022-08-21T15:20:44;29.30;50.70
11848;DHT22;5983;49.966;8.052;2022-08-21T15:23:12;29.20;50.00
11848;DHT22;5983;49.966;8.052;2022-08-21T15:25:47;29.20;50.60
11848;DHT22;5983;49.966;8.052;2022-08-21T15:28:41;29.20;50.90
11848;DHT22;5983;49.966;8.052;2022-08-21T15:31:10;29.30;51.00
11848;DHT22;5983;49.966;8.052;2022-08-21T15:33:37;29.20;51.20
11848;DHT22;5983;49.966;8.052;2022-08-21T15:36:04;29.20;50.70
11848;DHT22;5983;49.966;8.052;2022-08-21T15:38:34;29.10;50.30
11848;DHT22;5983;49.966;8.052;2022-08-21T15:41:08;29.00;49.90
11848;DHT22;5983;49.966;8.052;2022-08-21T15:43:41;29.00;50.30
11848;DHT22;5983;49.966;8.052;2022-08-21T15:46:12;28.90;50.70
11848;DHT22;5983;49.966;8.052;2022-08-21T15:48:41;28.90;51.30
11848;DHT22;5983;49.966;8.052;2022-08-21T15:51:12;28.80;51.70
11848;DHT22;5983;49.966;8.052;2022-08-21T15:53:41;28.80;51.10
11848;DHT22;5983;49.966;8.052;2022-08-21T15:56:14;28.70;52.00
11848;DHT22;5983;49.966;8.052;2022-08-21T15:58:49;28.70;52.60
11848;DHT22;5983;49.966;8.052;2022-08-21T16:01:17;28.60;53.80
11848;DHT22;5983;49.966;8.052;2022-08-21T16:03:49;28.60;54.00
11848;DHT22;5983;49.966;8.052;2022-08-21T16:06:18;28.50;53.50
11848;DHT22;5983;49.966;8.052;2022-08-21T16:08:45;28.40;53.00
11848;DHT22;5983;49.966;8.052;2022-08-21T16:11:13;28.30;53.50
11848;DHT22;5983;49.966;8.052;2022-08-21T16:13:44;28.20;54.10
11848;DHT22;5983;49.966;8.052;2022-08-21T16:16:16;28.20;54.00
11848;DHT22;5983;49.966;8.052;2022-08-21T16:18:46;28.10;54.70
11848;DHT22;5983;49.966;8.052;2022-08-21T16:21:14;28.00;55.10
11848;DHT22;5983;49.966;8.052;2022-08-21T16:23:42;28.00;54.30
11848;DHT22;5983;49.966;8.052;2022-08-21T16:26:11;27.90;54.00
11848;DHT22;5983;49.966;8.052;2022-08-21T16:28:41;27.90;53.70
11848;DHT22;5983;49.966;8.052;2022-08-21T16:31:11;27.90;54.00
11848;DHT22;5983;49.966;8.052;2022-08-21T16:33:43;27.90;54.30
11848;DHT22;5983;49.966;8.052;2022-08-21T16:36:12;27.90;53.70
11848;DHT22;5983;49.966;8.052;2022-08-21T16:38:40;27.90;53.70
11848;DHT22;5983;49.966;8.052;2022-08-21T16:41:11;27.90;53.50
11848;DHT22;5983;49.966;8.052;2022-08-21T16:43:41;27.80;53.70
11848;DHT22;5983;49.966;8.052;2022-08-21T16:46:11;27.80;53.10
11848;DHT22;5983;49.966;8.052;2022-08-21T16:48:41;27.70;53.00
11848;DHT22;5983;49.966;8.052;2022-08-21T16:51:10;27.70;52.90
11848;DHT22;5983;49.966;8.052;2022-08-21T16:53:37;27.70;52.80
11848;DHT22;5983;49.966;8.052;2022-08-21T16:56:05;27.60;53.30
11848;DHT22;5983;49.966;8.052;2022-08-21T16:58:35;27.60;52.50
11848;DHT22;5983;49.966;8.052;2022-08-21T17:01:07;27.60;52.70
11848;DHT22;5983;49.966;8.052;2022-08-21T17:03:37;27.50;53.90
11848;DHT22;5983;49.966;8.052;2022-08-21T17:06:08;27.50;53.80
11848;DHT22;5983;49.966;8.052;2022-08-21T17:08:36;27.40;53.40
11848;DHT22;5983;49.966;8.052;2022-08-21T17:11:05;27.40;53.40
11848;DHT22;5983;49.966;8.052;2022-08-21T17:13:34;27.30;53.30
11848;DHT22;5983;49.966;8.052;2022-08-21T17:16:02;27.30;53.30
11848;DHT22;5983;49.966;8.052;2022-08-21T17:18:29;27.30;53.30
11848;DHT22;5983;49.966;8.052;2022-08-21T17:20:57;27.30;53.20
11848;DHT22;5983;49.966;8.052;2022-08-21T17:23:24;27.20;53.30
11848;DHT22;5983;49.966;8.052;2022-08-21T17:25:52;27.20;53.20
11848;DHT22;5983;49.966;8.052;2022-08-21T17:28:24;27.10;52.90
11848;DHT22;5983;49.966;8.052;2022-08-21T17:30:54;27.10;53.10
11848;DHT22;5983;49.966;8.052;2022-08-21T17:33:24;27.10;53.00
11848;DHT22;5983;49.966;8.052;2022-08-21T17:35:53;27.00;52.60
11848;DHT22;5983;49.966;8.052;2022-08-21T17:38:21;27.00;52.80
11848;DHT22;5983;49.966;8.052;2022-08-21T17:40:48;26.90;54.10
11848;DHT22;5983;49.966;8.052;2022-08-21T17:43:16;26.90;55.80
11848;DHT22;5983;49.966;8.052;2022-08-21T17:45:44;26.80;55.50
11848;DHT22;5983;49.966;8.052;2022-08-21T17:48:11;26.80;55.50
11848;DHT22;5983;49.966;8.052;2022-08-21T17:50:39;26.80;56.00
11848;DHT22;5983;49.966;8.052;2022-08-21T17:53:07;26.70;56.30
11848;DHT22;5983;49.966;8.052;2022-08-21T17:55:36;26.60;58.60
11848;DHT22;5983;49.966;8.052;2022-08-21T17:58:03;26.50;59.60
11848;DHT22;5983;49.966;8.052;2022-08-21T18:00:31;26.40;59.90
11848;DHT22;5983;49.966;8.052;2022-08-21T18:03:05;26.30;59.60
11848;DHT22;5983;49.966;8.052;2022-08-21T18:05:39;26.20;59.30
11848;DHT22;5983;49.966;8.052;2022-08-21T18:08:06;26.10;59.30
11848;DHT22;5983;49.966;8.052;2022-08-21T18:10:38;25.90;59.70
11848;DHT22;5983;49.966;8.052;2022-08-21T18:13:11;25.80;60.60
11848;DHT22;5983;49.966;8.052;2022-08-21T18:15:41;25.70;60.40
11848;DHT22;5983;49.966;8.052;2022-08-21T18:18:11;25.60;60.00
11848;DHT22;5983;49.966;8.052;2022-08-21T18:20:38;25.50;60.60
11848;DHT22;5983;49.966;8.052;2022-08-21T18:23:05;25.30;60.90
11848;DHT22;5983;49.966;8.052;2022-08-21T18:25:32;25.20;61.00
11848;DHT22;5983;49.966;8.052;2022-08-21T18:28:03;25.10;61.90
11848;DHT22;5983;49.966;8.052;2022-08-21T18:30:34;25.00;63.30
11848;DHT22;5983;49.966;8.052;2022-08-21T18:33:03;24.90;64.20
11848;DHT22;5983;49.966;8.052;2022-08-21T18:35:30;24.70;64.50
11848;DHT22;5983;49.966;8.052;2022-08-21T18:38:01;24.60;64.00
11848;DHT22;5983;49.966;8.052;2022-08-21T18:40:37;24.50;64.30
11848;DHT22;5983;49.966;8.052;2022-08-21T18:43:11;24.30;64.60
11848;DHT22;5983;49.966;8.052;2022-08-21T18:45:39;24.20;65.20
11848;DHT22;5983;49.966;8.052;2022-08-21T18:48:09;24.20;66.40
11848;DHT22;5983;49.966;8.052;2022-08-21T18:50:40;24.10;66.00
11848;DHT22;5983;49.966;8.052;2022-08-21T18:53:11;24.00;64.90
11848;DHT22;5983;49.966;8.052;2022-08-21T18:55:40;23.90;64.60
11848;DHT22;5983;49.966;8.052;2022-08-21T18:58:11;23.90;63.40
11848;DHT22;5983;49.966;8.052;2022-08-21T19:00:41;23.80;64.00
11848;DHT22;5983;49.966;8.052;2022-08-21T19:03:12;23.80;63.50
11848;DHT22;5983;49.966;8.052;2022-08-21T19:05:39;23.70;62.80
11848;DHT22;5983;49.966;8.052;2022-08-21T19:08:09;23.60;63.50
11848;DHT22;5983;49.966;8.052;2022-08-21T19:10:37;23.50;65.00
11848;DHT22;5983;49.966;8.052;2022-08-21T19:13:05;23.50;66.30
11848;DHT22;5983;49.966;8.052;2022-08-21T19:15:35;23.30;67.40
11848;DHT22;5983;49.966;8.052;2022-08-21T19:18:08;23.20;68.20
11848;DHT22;5983;49.966;8.052;2022-08-21T19:20:38;23.10;69.00
11848;DHT22;5983;49.966;8.052;2022-08-21T19:23:08;22.90;68.90
11848;DHT22;5983;49.966;8.052;2022-08-21T19:25:38;22.90;68.30
11848;DHT22;5983;49.966;8.052;2022-08-21T19:28:09;22.90;67.80
11848;DHT22;5983;49.966;8.052;2022-08-21T19:30:42;22.90;67.90
11848;DHT22;5983;49.966;8.052;2022-08-21T19:33:12;22.80;67.90
11848;DHT22;5983;49.966;8.052;2022-08-21T19:35:50;22.80;68.40
11848;DHT22;5983;49.966;8.052;2022-08-21T19:38:17;22.70;67.90
11848;DHT22;5983;49.966;8.052;2022-08-21T19:40:44;22.70;67.90
11848;DHT22;5983;49.966;8.052;2022-08-21T19:43:12;22.50;67.80
11848;DHT22;5983;49.966;8.052;2022-08-21T19:45:40;22.50;67.80
11848;DHT22;5983;49.966;8.052;2022-08-21T19:48:08;22.50;67.70
11848;DHT22;5983;49.966;8.052;2022-08-21T19:50:35;22.50;67.90
11848;DHT22;5983;49.966;8.052;2022-08-21T19:53:02;22.40;68.10
11848;DHT22;5983;49.966;8.052;2022-08-21T19:55:30;22.50;68.70
11848;DHT22;5983;49.966;8.052;2022-08-21T19:57:57;22.40;68.80
11848;DHT22;5983;49.966;8.052;2022-08-21T20:00:24;22.40;69.40
11848;DHT22;5983;49.966;8.052;2022-08-21T20:02:53;22.40;69.10
11848;DHT22;5983;49.966;8.052;2022-08-21T20:05:20;22.30;68.90
11848;DHT22;5983;49.966;8.052;2022-08-21T20:07:47;22.30;71.00
11848;DHT22;5983;49.966;8.052;2022-08-21T20:10:14;22.20;71.90
11848;DHT22;5983;49.966;8.052;2022-08-21T20:12:42;22.10;72.50
11848;DHT22;5983;49.966;8.052;2022-08-21T20:15:22;22.00;72.50
11848;DHT22;5983;49.966;8.052;2022-08-21T20:17:49;22.00;71.70
11848;DHT22;5983;49.966;8.052;2022-08-21T20:20:21;22.00;71.30
11848;DHT22;5983;49.966;8.052;2022-08-21T20:22:48;21.90;70.10
11848;DHT22;5983;49.966;8.052;2022-08-21T20:25:15;22.00;69.60
11848;DHT22;5983;49.966;8.052;2022-08-21T20:27:42;22.00;69.60
11848;DHT22;5983;49.966;8.052;2022-08-21T20:30:10;22.10;70.10
11848;DHT22;5983;49.966;8.052;2022-08-21T20:32:38;22.20;70.60
11848;DHT22;5983;49.966;8.052;2022-08-21T20:35:06;22.30;70.20
11848;DHT22;5983;49.966;8.052;2022-08-21T20:37:35;22.30;70.70
11848;DHT22;5983;49.966;8.052;2022-08-21T20:40:05;22.30;71.10
11848;DHT22;5983;49.966;8.052;2022-08-21T20:42:35;22.30;71.60
11848;DHT22;5983;49.966;8.052;2022-08-21T20:45:04;22.30;72.00
11848;DHT22;5983;49.966;8.052;2022-08-21T20:47:32;22.20;72.40
11848;DHT22;5983;49.966;8.052;2022-08-21T20:50:04;22.20;73.10
11848;DHT22;5983;49.966;8.052;2022-08-21T20:52:36;22.10;73.80
11848;DHT22;5983;49.966;8.052;2022-08-21T20:55:07;22.10;74.60
11848;DHT22;5983;49.966;8.052;2022-08-21T20:57:42;22.00;75.10
11848;DHT22;5983;49.966;8.052;2022-08-21T21:00:15;22.00;75.30
11848;DHT22;5983;49.966;8.052;2022-08-21T21:02:49;22.00;75.00
11848;DHT22;5983;49.966;8.052;2022-08-21T21:05:32;22.00;74.80
11848;DHT22;5983;49.966;8.052;2022-08-21T21:08:10;21.90;74.70
11848;DHT22;5983;49.966;8.052;2022-08-21T21:13:55;21.80;75.20
11848;DHT22;5983;49.966;8.052;2022-08-21T21:17:06;21.80;74.90
11848;DHT22;5983;49.966;8.052;2022-08-21T21:20:20;21.70;75.80
11848;DHT22;5983;49.966;8.052;2022-08-21T21:23:18;21.60;75.90
11848;DHT22;5983;49.966;8.052;2022-08-21T21:25:57;21.60;76.20
11848;DHT22;5983;49.966;8.052;2022-08-21T21:28:38;21.60;77.40
11848;DHT22;5983;49.966;8.052;2022-08-21T21:31:11;21.50;77.30
11848;DHT22;5983;49.966;8.052;2022-08-21T21:33:39;21.50;77.30
11848;DHT22;5983;49.966;8.052;2022-08-21T21:36:11;21.50;77.40
11848;DHT22;5983;49.966;8.052;2022-08-21T21:38:52;21.50;77.60
11848;DHT22;5983;49.966;8.052;2022-08-21T21:41:34;21.50;78.10
11848;DHT22;5983;49.966;8.052;2022-08-21T21:44:36;21.40;78.10
11848;DHT22;5983;49.966;8.052;2022-08-21T21:47:21;21.40;78.70
11848;DHT22;5983;49.966;8.052;2022-08-21T21:50:11;21.30;79.00
11848;DHT22;5983;49.966;8.052;2022-08-21T21:53:01;21.20;79.70
11848;DHT22;5983;49.966;8.052;2022-08-21T21:55:54;21.10;80.10
11848;DHT22;5983;49.966;8.052;2022-08-21T21:58:43;21.10;80.10
11848;DHT22;5983;49.966;8.052;2022-08-21T22:01:29;21.00;80.70
11848;DHT22;5983;49.966;8.052;2022-08-21T22:04:09;20.90;81.50
11848;DHT22;5983;49.966;8.052;2022-08-21T22:06:47;20.90;82.90
11848;DHT22;5983;49.966;8.052;2022-08-21T22:09:23;20.90;82.80
11848;DHT22;5983;49.966;8.052;2022-08-21T22:12:22;20.80;83.00
11848;DHT22;5983;49.966;8.052;2022-08-21T22:14:56;20.70;82.70
11848;DHT22;5983;49.966;8.052;2022-08-21T22:17:33;20.70;83.00
11848;DHT22;5983;49.966;8.052;2022-08-21T22:20:14;20.70;83.50
11848;DHT22;5983;49.966;8.052;2022-08-21T22:22:47;20.60;84.30
11848;DHT22;5983;49.966;8.052;2022-08-21T22:25:19;20.60;85.20
11848;DHT22;5983;49.966;8.052;2022-08-21T22:27:56;20.50;85.30
11848;DHT22;5983;49.966;8.052;2022-08-21T22:30:40;20.50;85.80
11848;DHT22;5983;49.966;8.052;2022-08-21T22:33:15;20.50;86.10
11848;DHT22;5983;49.966;8.052;2022-08-21T22:35:44;20.50;86.40
11848;DHT22;5983;49.966;8.052;2022-08-21T22:38:18;20.40;87.00
11848;DHT22;5983;49.966;8.052;2022-08-21T22:41:09;20.40;88.00
11848;DHT22;5983;49.966;8.052;2022-08-21T22:43:54;20.30;88.40
11848;DHT22;5983;49.966;8.052;2022-08-21T22:46:31;20.30;88.70
11848;DHT22;5983;49.966;8.052;2022-08-21T22:49:04;20.30;88.90
11848;DHT22;5983;49.966;8.052;2022-08-21T22:51:38;20.30;89.20
11848;DHT22;5983;49.966;8.052;2022-08-21T22:54:10;20.30;89.10
11848;DHT22;5983;49.966;8.052;2022-08-21T22:56:42;20.20;89.60
11848;DHT22;5983;49.966;8.052;2022-08-21T22:59:24;20.20;90.00
11848;DHT22;5983;49.966;8.052;2022-08-21T23:01:57;20.20;90.40
11848;DHT22;5983;49.966;8.052;2022-08-21T23:04:27;20.20;90.60
11848;DHT22;5983;49.966;8.052;2022-08-21T23:06:56;20.20;90.40
11848;DHT22;5983;49.966;8.052;2022-08-21T23:09:31;20.20;90.70
11848;DHT22;5983;49.966;8.052;2022-08-21T23:12:01;20.20;91.00
11848;DHT22;5983;49.966;8.052;2022-08-21T23:14:32;20.20;91.10
11848;DHT22;5983;49.966;8.052;2022-08-21T23:17:02;20.10;91.40
11848;DHT22;5983;49.966;8.052;2022-08-21T23:19:43;20.10;91.60
11848;DHT22;5983;49.966;8.052;2022-08-21T23:22:37;20.10;91.80
11848;DHT22;5983;49.966;8.052;2022-08-21T23:25:21;20.10;92.10
11848;DHT22;5983;49.966;8.052;2022-08-21T23:28:07;20.20;92.40
11848;DHT22;5983;49.966;8.052;2022-08-21T23:30:49;20.20;92.10
11848;DHT22;5983;49.966;8.052;2022-08-21T23:33:34;20.20;92.30
11848;DHT22;5983;49.966;8.052;2022-08-21T23:36:18;20.20;92.10
11848;DHT22;5983;49.966;8.052;2022-08-21T23:39:19;20.10;92.00
11848;DHT22;5983;49.966;8.052;2022-08-21T23:41:57;20.10;92.40
11848;DHT22;5983;49.966;8.052;2022-08-21T23:44:41;20.10;92.30
11848;DHT22;5983;49.966;8.052;2022-08-21T23:47:26;20.10;92.80
11848;DHT22;5983;49.966;8.052;2022-08-21T23:50:06;20.10;93.20
11848;DHT22;5983;49.966;8.052;2022-08-21T23:52:44;20.10;93.70
11848;DHT22;5983;49.966;8.052;2022-08-21T23:55:32;20.00;94.00
11848;DHT22;5983;49.966;8.052;2022-08-21T23:58:15;19.90;94.60
